sensor_id;sensor_type;location;lat;lon;timestamp;pressure;altitude;pressure_sealevel;temperature;humidity
4392;BME280;2210;51.938;8.488;2023-01-27T00:00:34;101256.59;;;1.71;100.00
4392;BME280;2210;51.938;8.488;2023-01-27T00:04:37;101254.06;;;1.69;100.00
4392;BME280;2210;51.938;8.488;2023-01-27T00:08:40;101251.00;;;1.72;100.00
4392;BME280;2210;51.938;8.488;2023-01-27T00:12:49;101253.59;;;1.74;100.00
4392;BME280;2210;51.938;8.488;2023-01-27T00:17:08;101255.97;;;1.77;100.00
4392;BME280;2210;51.938;8.488;2023-01-27T00:21:09;101245.78;;;1.79;100.00
4392;BME280;2210;51.938;8.488;2023-01-27T00:25:27;101250.03;;;1.81;100.00
4392;BME280;2210;51.938;8.488;2023-01-27T00:29:30;101239.69;;;1.85;100.00
4392;BME280;2210;51.938;8.488;2023-01-27T00:33:37;101241.53;;;1.84;100.00
4392;BME280;2210;51.938;8.488;2023-01-27T00:37:40;101237.50;;;1.89;100.00
4392;BME280;2210;51.938;8.488;2023-01-27T00:41:40;101242.78;;;1.90;100.00
4392;BME280;2210;51.938;8.488;2023-01-27T00:45:59;101248.72;;;1.94;100.00
4392;BME280;2210;51.938;8.488;2023-01-27T00:50:03;101244.00;;;1.96;100.00
4392;BME280;2210;51.938;8.488;2023-01-27T00:54:04;101244.66;;;1.98;100.00
4392;BME280;2210;51.938;8.488;2023-01-27T00:58:16;101239.09;;;1.99;100.00
4392;BME280;2210;51.938;8.488;2023-01-27T01:02:22;101238.06;;;2.00;100.00
4392;BME280;2210;51.938;8.488;2023-01-27T01:06:32;101232.63;;;2.00;100.00
4392;BME280;2210;51.938;8.488;2023-01-27T01:10:51;101242.66;;;2.00;100.00
4392;BME280;2210;51.938;8.488;2023-01-27T01:15:04;101244.38;;;2.01;100.00
4392;BME280;2210;51.938;8.488;2023-01-27T01:19:07;101246.91;;;2.02;100.00
4392;BME280;2210;51.938;8.488;2023-01-27T01:23:16;101251.19;;;2.05;100.00
4392;BME280;2210;51.938;8.488;2023-01-27T01:27:29;101257.47;;;2.06;100.00
4392;BME280;2210;51.938;8.488;2023-01-27T01:31:32;101259.19;;;2.07;100.00
4392;BME280;2210;51.938;8.488;2023-01-27T01:35:37;101265.28;;;2.09;100.00
4392;BME280;2210;51.938;8.488;2023-01-27T01:39:43;101258.00;;;2.09;100.00
4392;BME280;2210;51.938;8.488;2023-01-27T01:43:50;101257.84;;;2.11;100.00
4392;BME280;2210;51.938;8.488;2023-01-27T01:47:54;101256.66;;;2.13;100.00
4392;BME280;2210;51.938;8.488;2023-01-27T01:51:58;101253.78;;;2.15;100.00
4392;BME280;2210;51.938;8.488;2023-01-27T01:56:04;101259.75;;;2.18;100.00
4392;BME280;2210;51.938;8.488;2023-01-27T02:00:07;101256.16;;;2.18;100.00
4392;BME280;2210;51.938;8.488;2023-01-27T02:04:23;101252.41;;;2.19;100.00
4392;BME280;2210;51.938;8.488;2023-01-27T02:08:39;101251.41;;;2.20;100.00
4392;BME280;2210;51.938;8.488;2023-01-27T02:12:59;101258.69;;;2.19;100.00
4392;BME280;2210;51.938;8.488;2023-01-27T02:17:15;101258.41;;;2.23;100.00
4392;BME280;2210;51.938;8.488;2023-01-27T02:21:18;101251.78;;;2.25;100.00
4392;BME280;2210;51.938;8.488;2023-01-27T02:25:27;101255.50;;;2.24;100.00
4392;BME280;2210;51.938;8.488;2023-01-27T02:29:40;101263.34;;;2.27;100.00
4392;BME280;2210;51.938;8.488;2023-01-27T02:33:43;101262.31;;;2.28;100.00
4392;BME280;2210;51.938;8.488;2023-01-27T02:37:43;101262.31;;;2.28;100.00
4392;BME280;2210;51.938;8.488;2023-01-27T02:41:48;101264.34;;;2.26;100.00
4392;BME280;2210;51.938;8.488;2023-01-27T02:45:49;101266.06;;;2.27;100.00
4392;BME280;2210;51.938;8.488;2023-01-27T02:49:49;101265.72;;;2.30;100.00
4392;BME280;2210;51.938;8.488;2023-01-27T02:53:49;101268.44;;;2.30;100.00
4392;BME280;2210;51.938;8.488;2023-01-27T02:57:58;101261.31;;;2.29;100.00
4392;BME280;2210;51.938;8.488;2023-01-27T03:02:04;101270.84;;;2.33;100.00
4392;BME280;2210;51.938;8.488;2023-01-27T03:06:09;101275.25;;;2.34;100.00
4392;BME280;2210;51.938;8.488;2023-01-27T03:10:10;101268.47;;;2.39;100.00
4392;BME280;2210;51.938;8.488;2023-01-27T03:14:10;101272.56;;;2.43;100.00
4392;BME280;2210;51.938;8.488;2023-01-27T03:18:13;101274.97;;;2.46;100.00
4392;BME280;2210;51.938;8.488;2023-01-27T03:22:24;101272.06;;;2.47;100.00
4392;BME280;2210;51.938;8.488;2023-01-27T03:26:25;101274.81;;;2.47;100.00
4392;BME280;2210;51.938;8.488;2023-01-27T03:30:27;101273.78;;;2.48;100.00
4392;BME280;2210;51.938;8.488;2023-01-27T03:34:30;101279.06;;;2.50;100.00
4392;BME280;2210;51.938;8.488;2023-01-27T03:38:30;101275.31;;;2.51;100.00
4392;BME280;2210;51.938;8.488;2023-01-27T03:42:51;101275.16;;;2.52;100.00
4392;BME280;2210;51.938;8.488;2023-01-27T03:47:10;101272.94;;;2.56;100.00
4392;BME280;2210;51.938;8.488;2023-01-27T03:51:18;101274.28;;;2.52;100.00
4392;BME280;2210;51.938;8.488;2023-01-27T03:55:19;101282.16;;;2.55;100.00
4392;BME280;2210;51.938;8.488;2023-01-27T03:59:19;101272.94;;;2.56;100.00
4392;BME280;2210;51.938;8.488;2023-01-27T04:03:21;101273.81;;;2.57;100.00
4392;BME280;2210;51.938;8.488;2023-01-27T04:07:40;101277.72;;;2.54;100.00
4392;BME280;2210;51.938;8.488;2023-01-27T04:11:40;101267.66;;;2.55;100.00
4392;BME280;2210;51.938;8.488;2023-01-27T04:15:55;101265.44;;;2.50;100.00
4392;BME280;2210;51.938;8.488;2023-01-27T04:19:59;101269.88;;;2.51;100.00
4392;BME280;2210;51.938;8.488;2023-01-27T04:23:59;101264.91;;;2.46;100.00
4392;BME280;2210;51.938;8.488;2023-01-27T04:28:03;101274.28;;;2.52;100.00
4392;BME280;2210;51.938;8.488;2023-01-27T04:32:11;101277.72;;;2.54;100.00
4392;BME280;2210;51.938;8.488;2023-01-27T04:36:14;101290.31;;;2.55;100.00
4392;BME280;2210;51.938;8.488;2023-01-27T04:40:15;101290.81;;;2.59;100.00
4392;BME280;2210;51.938;8.488;2023-01-27T04:44:19;101293.06;;;2.63;100.00
4392;BME280;2210;51.938;8.488;2023-01-27T04:48:19;101293.72;;;2.65;100.00
4392;BME280;2210;51.938;8.488;2023-01-27T04:52:19;101312.44;;;2.68;100.00
4392;BME280;2210;51.938;8.488;2023-01-27T04:56:27;101320.13;;;2.73;100.00
4392;BME280;2210;51.938;8.488;2023-01-27T05:00:31;101312.63;;;2.75;100.00
4392;BME280;2210;51.938;8.488;2023-01-27T05:04:37;101309.72;;;2.77;100.00
4392;BME280;2210;51.938;8.488;2023-01-27T05:08:38;101319.63;;;2.78;100.00
4392;BME280;2210;51.938;8.488;2023-01-27T05:12:38;101326.78;;;2.79;100.00
4392;BME280;2210;51.938;8.488;2023-01-27T05:16:38;101327.78;;;2.78;100.00
4392;BME280;2210;51.938;8.488;2023-01-27T05:20:41;101330.69;;;2.76;100.00
4392;BME280;2210;51.938;8.488;2023-01-27T05:24:42;101330.69;;;2.76;100.00
4392;BME280;2210;51.938;8.488;2023-01-27T05:28:46;101329.66;;;2.77;100.00
4392;BME280;2210;51.938;8.488;2023-01-27T05:32:47;101330.69;;;2.76;100.00
4392;BME280;2210;51.938;8.488;2023-01-27T05:36:50;101332.22;;;2.79;100.00
4392;BME280;2210;51.938;8.488;2023-01-27T05:40:58;101338.38;;;2.81;100.00
4392;BME280;2210;51.938;8.488;2023-01-27T05:45:04;101338.03;;;2.84;100.00
4392;BME280;2210;51.938;8.488;2023-01-27T05:49:04;101337.16;;;2.83;100.00
4392;BME280;2210;51.938;8.488;2023-01-27T05:53:05;101336.16;;;2.84;100.00
4392;BME280;2210;51.938;8.488;2023-01-27T05:57:05;101343.13;;;2.87;100.00
4392;BME280;2210;51.938;8.488;2023-01-27T06:05:14;101354.72;;;2.89;100.00
4392;BME280;2210;51.938;8.488;2023-01-27T06:09:14;101357.47;;;2.89;100.00
4392;BME280;2210;51.938;8.488;2023-01-27T06:13:14;101361.03;;;2.90;100.00
4392;BME280;2210;51.938;8.488;2023-01-27T06:17:15;101359.13;;;2.90;100.00
4392;BME280;2210;51.938;8.488;2023-01-27T06:21:16;101367.00;;;2.93;100.00
4392;BME280;2210;51.938;8.488;2023-01-27T06:25:16;101375.84;;;2.95;100.00
4392;BME280;2210;51.938;8.488;2023-01-27T06:29:16;101382.00;;;2.97;100.00
4392;BME280;2210;51.938;8.488;2023-01-27T06:33:17;101383.66;;;2.98;100.00
4392;BME280;2210;51.938;8.488;2023-01-27T06:37:20;101385.38;;;2.99;100.00
4392;BME280;2210;51.938;8.488;2023-01-27T06:41:23;101385.22;;;3.01;100.00
4392;BME280;2210;51.938;8.488;2023-01-27T06:45:24;101382.50;;;3.01;100.00
4392;BME280;2210;51.938;8.488;2023-01-27T06:49:24;101383.38;;;3.01;100.00
4392;BME280;2210;51.938;8.488;2023-01-27T06:53:24;101396.81;;;3.03;100.00
4392;BME280;2210;51.938;8.488;2023-01-27T06:57:25;101401.38;;;3.02;100.00
4392;BME280;2210;51.938;8.488;2023-01-27T07:01:25;101400.19;;;3.05;100.00
4392;BME280;2210;51.938;8.488;2023-01-27T07:05:25;101403.81;;;3.06;100.00
4392;BME280;2210;51.938;8.488;2023-01-27T07:09:25;101408.91;;;3.09;100.00
4392;BME280;2210;51.938;8.488;2023-01-27T07:13:29;101403.47;;;3.09;100.00
4392;BME280;2210;51.938;8.488;2023-01-27T07:17:29;101411.63;;;3.09;100.00
4392;BME280;2210;51.938;8.488;2023-01-27T07:21:29;101423.22;;;3.11;100.00
4392;BME280;2210;51.938;8.488;2023-01-27T07:25:32;101415.72;;;3.13;100.00
4392;BME280;2210;51.938;8.488;2023-01-27T07:29:35;101414.00;;;3.12;100.00
4392;BME280;2210;51.938;8.488;2023-01-27T07:33:35;101416.75;;;3.12;100.00
4392;BME280;2210;51.938;8.488;2023-01-27T07:37:36;101427.63;;;3.12;100.00
4392;BME280;2210;51.938;8.488;2023-01-27T07:41:36;101422.19;;;3.12;100.00
4392;BME280;2210;51.938;8.488;2023-01-27T07:45:36;101418.44;;;3.13;100.00
4392;BME280;2210;51.938;8.488;2023-01-27T07:49:37;101421.19;;;3.13;100.00
4392;BME280;2210;51.938;8.488;2023-01-27T07:53:37;101434.63;;;3.14;100.00
4392;BME280;2210;51.938;8.488;2023-01-27T07:57:37;101436.19;;;3.17;100.00
4392;BME280;2210;51.938;8.488;2023-01-27T08:01:37;101442.31;;;3.19;100.00
4392;BME280;2210;51.938;8.488;2023-01-27T08:05:43;101437.88;;;3.18;100.00
4392;BME280;2210;51.938;8.488;2023-01-27T08:09:43;101444.00;;;3.20;100.00
4392;BME280;2210;51.938;8.488;2023-01-27T08:13:43;101451.00;;;3.23;100.00
4392;BME280;2210;51.938;8.488;2023-01-27T08:17:54;101453.56;;;3.24;100.00
4392;BME280;2210;51.938;8.488;2023-01-27T08:21:55;101453.56;;;3.24;100.00
4392;BME280;2210;51.938;8.488;2023-01-27T08:25:57;101462.44;;;3.26;100.00
4392;BME280;2210;51.938;8.488;2023-01-27T08:30:01;101461.44;;;3.27;100.00
4392;BME280;2210;51.938;8.488;2023-01-27T08:34:01;101465.84;;;3.28;100.00
4392;BME280;2210;51.938;8.488;2023-01-27T08:38:01;101470.28;;;3.29;100.00
4392;BME280;2210;51.938;8.488;2023-01-27T08:42:01;101465.84;;;3.28;100.00
4392;BME280;2210;51.938;8.488;2023-01-27T08:46:02;101474.00;;;3.28;100.00
4392;BME280;2210;51.938;8.488;2023-01-27T08:50:03;101486.47;;;3.31;100.00
4392;BME280;2210;51.938;8.488;2023-01-27T08:54:03;101483.72;;;3.31;100.00
4392;BME280;2210;51.938;8.488;2023-01-27T08:58:03;101487.34;;;3.31;100.00
4392;BME280;2210;51.938;8.488;2023-01-27T09:02:04;101504.53;;;3.32;100.00
4392;BME280;2210;51.938;8.488;2023-01-27T09:06:07;101511.00;;;3.31;100.00
4392;BME280;2210;51.938;8.488;2023-01-27T09:10:12;101507.75;;;3.27;100.00
4392;BME280;2210;51.938;8.488;2023-01-27T09:14:22;101520.34;;;3.28;100.00
4392;BME280;2210;51.938;8.488;2023-01-27T09:18:28;101519.03;;;3.32;100.00
4392;BME280;2210;51.938;8.488;2023-01-27T09:22:34;101526.00;;;3.35;100.00
4392;BME280;2210;51.938;8.488;2023-01-27T09:26:35;101524.50;;;3.41;100.00
4392;BME280;2210;51.938;8.488;2023-01-27T09:30:35;101518.72;;;3.44;100.00
4392;BME280;2210;51.938;8.488;2023-01-27T09:34:36;101518.72;;;3.44;100.00
4392;BME280;2210;51.938;8.488;2023-01-27T09:38:45;101533.31;;;3.34;100.00
4392;BME280;2210;51.938;8.488;2023-01-27T09:47:25;101529.94;;;3.32;100.00
4392;BME280;2210;51.938;8.488;2023-01-27T10:22:37;101542.03;;;3.38;100.00
4392;BME280;2210;51.938;8.488;2023-01-27T10:26:49;101538.25;;;3.31;100.00
4392;BME280;2210;51.938;8.488;2023-01-27T10:31:08;101528.03;;;3.25;100.00
4392;BME280;2210;51.938;8.488;2023-01-27T10:35:31;101540.78;;;3.24;100.00
4392;BME280;2210;51.938;8.488;2023-01-27T10:44:36;101542.16;;;3.28;100.00
4392;BME280;2210;51.938;8.488;2023-01-27T10:48:51;101540.66;;;3.34;100.00
4392;BME280;2210;51.938;8.488;2023-01-27T10:53:35;101548.50;;;3.37;100.00
4392;BME280;2210;51.938;8.488;2023-01-27T10:57:54;101552.06;;;3.37;100.00
4392;BME280;2210;51.938;8.488;2023-01-27T11:06:07;101545.63;;;3.47;100.00
4392;BME280;2210;51.938;8.488;2023-01-27T11:10:16;101537.63;;;3.45;100.00
4392;BME280;2210;51.938;8.488;2023-01-27T11:14:22;101542.63;;;3.58;100.00
4392;BME280;2210;51.938;8.488;2023-01-27T11:18:26;101536.97;;;3.51;100.00
4392;BME280;2210;51.938;8.488;2023-01-27T11:22:39;101540.38;;;3.53;100.00
4392;BME280;2210;51.938;8.488;2023-01-27T11:26:47;101534.75;;;3.55;100.00
4392;BME280;2210;51.938;8.488;2023-01-27T11:31:13;101548.22;;;3.57;100.00
4392;BME280;2210;51.938;8.488;2023-01-27T11:35:18;101539.19;;;3.56;100.00
4392;BME280;2210;51.938;8.488;2023-01-27T11:39:19;101541.22;;;3.54;100.00
4392;BME280;2210;51.938;8.488;2023-01-27T11:43:23;101541.06;;;3.56;100.00
4392;BME280;2210;51.938;8.488;2023-01-27T11:47:37;101543.63;;;3.57;100.00
4392;BME280;2210;51.938;8.488;2023-01-27T11:51:38;101534.94;;;3.62;100.00
4392;BME280;2210;51.938;8.488;2023-01-27T11:55:41;101537.19;;;3.66;100.00
4392;BME280;2210;51.938;8.488;2023-01-27T11:59:44;101539.38;;;3.63;100.00
4392;BME280;2210;51.938;8.488;2023-01-27T12:04:09;101532.03;;;3.63;100.00
4392;BME280;2210;51.938;8.488;2023-01-27T12:08:39;101535.81;;;3.62;100.00
4392;BME280;2210;51.938;8.488;2023-01-27T12:12:39;101535.81;;;3.70;100.00
4392;BME280;2210;51.938;8.488;2023-01-27T12:16:45;101530.38;;;3.70;100.00
4392;BME280;2210;51.938;8.488;2023-01-27T12:20:55;101523.88;;;3.71;100.00
4392;BME280;2210;51.938;8.488;2023-01-27T12:24:59;101527.66;;;3.87;100.00
4392;BME280;2210;51.938;8.488;2023-01-27T12:29:05;101527.31;;;3.90;100.00
4392;BME280;2210;51.938;8.488;2023-01-27T12:33:16;101523.06;;;4.04;100.00
4392;BME280;2210;51.938;8.488;2023-01-27T12:37:26;101524.25;;;4.01;100.00
4392;BME280;2210;51.938;8.488;2023-01-27T12:41:32;101526.66;;;3.88;100.00
4392;BME280;2210;51.938;8.488;2023-01-27T12:45:33;101519.13;;;3.74;100.00
4392;BME280;2210;51.938;8.488;2023-01-27T12:49:40;101520.50;;;3.78;100.00
4392;BME280;2210;51.938;8.488;2023-01-27T12:53:43;101514.88;;;3.79;100.00
4392;BME280;2210;51.938;8.488;2023-01-27T12:57:43;101511.97;;;3.81;100.00
4392;BME280;2210;51.938;8.488;2023-01-27T13:05:58;101509.41;;;3.87;100.00
4392;BME280;2210;51.938;8.488;2023-01-27T13:10:00;101501.59;;;3.93;100.00
4392;BME280;2210;51.938;8.488;2023-01-27T13:14:01;101507.22;;;3.91;100.00
4392;BME280;2210;51.938;8.488;2023-01-27T13:18:12;101507.53;;;3.80;100.00
4392;BME280;2210;51.938;8.488;2023-01-27T13:22:20;101516.06;;;3.77;100.00
4392;BME280;2210;51.938;8.488;2023-01-27T13:26:27;101521.16;;;3.80;100.00
4392;BME280;2210;51.938;8.488;2023-01-27T13:30:32;101529.34;;;3.71;100.00
4392;BME280;2210;51.938;8.488;2023-01-27T13:34:42;101520.84;;;3.75;100.00
4392;BME280;2210;51.938;8.488;2023-01-27T13:38:52;101519.59;;;3.69;100.00
4392;BME280;2210;51.938;8.488;2023-01-27T13:47:17;101518.41;;;3.63;100.00
4392;BME280;2210;51.938;8.488;2023-01-27T13:51:21;101525.22;;;3.59;100.00
4392;BME280;2210;51.938;8.488;2023-01-27T14:00:09;101529.00;;;3.58;100.00
4392;BME280;2210;51.938;8.488;2023-01-27T14:21:38;101545.81;;;3.53;100.00
4392;BME280;2210;51.938;8.488;2023-01-27T14:25:52;101539.69;;;3.51;100.00
4392;BME280;2210;51.938;8.488;2023-01-27T14:39:19;101558.56;;;3.36;100.00
4392;BME280;2210;51.938;8.488;2023-01-27T14:52:16;101550.69;;;3.33;100.00
4392;BME280;2210;51.938;8.488;2023-01-27T14:56:54;101558.88;;;3.33;100.00
4392;BME280;2210;51.938;8.488;2023-01-27T15:01:16;101570.13;;;3.30;100.00
4392;BME280;2210;51.938;8.488;2023-01-27T15:05:29;101576.06;;;3.26;100.00
4392;BME280;2210;51.938;8.488;2023-01-27T15:09:49;101585.25;;;3.25;100.00
4392;BME280;2210;51.938;8.488;2023-01-27T15:22:46;101598.84;;;3.16;100.00
4392;BME280;2210;51.938;8.488;2023-01-27T15:26:53;101601.72;;;3.15;100.00
4392;BME280;2210;51.938;8.488;2023-01-27T15:35:35;101610.22;;;3.12;100.00
4392;BME280;2210;51.938;8.488;2023-01-27T15:40:12;101619.09;;;3.14;100.00
4392;BME280;2210;51.938;8.488;2023-01-27T15:48:33;101623.00;;;3.11;100.00
4392;BME280;2210;51.938;8.488;2023-01-27T15:52:45;101626.56;;;3.12;100.00
4392;BME280;2210;51.938;8.488;2023-01-27T15:56:49;101616.16;;;3.07;100.00
4392;BME280;2210;51.938;8.488;2023-01-27T16:00:52;101633.34;;;3.08;100.00
4392;BME280;2210;51.938;8.488;2023-01-27T16:05:07;101635.78;;;3.11;100.00
4392;BME280;2210;51.938;8.488;2023-01-27T16:09:25;101634.22;;;3.08;100.00
4392;BME280;2210;51.938;8.488;2023-01-27T16:13:28;101633.63;;;2.96;100.00
4392;BME280;2210;51.938;8.488;2023-01-27T16:17:32;101651.13;;;2.94;100.00
4392;BME280;2210;51.938;8.488;2023-01-27T16:21:42;101656.19;;;2.89;100.00
4392;BME280;2210;51.938;8.488;2023-01-27T16:25:45;101661.50;;;2.90;100.00
4392;BME280;2210;51.938;8.488;2023-01-27T16:30:06;101657.38;;;2.86;100.00
4392;BME280;2210;51.938;8.488;2023-01-27T16:34:19;101655.69;;;2.85;100.00
4392;BME280;2210;51.938;8.488;2023-01-27T16:38:28;101654.97;;;2.83;100.00
4392;BME280;2210;51.938;8.488;2023-01-27T16:42:32;101654.97;;;2.83;100.00
4392;BME280;2210;51.938;8.488;2023-01-27T16:46:39;101660.03;;;2.78;100.00
4392;BME280;2210;51.938;8.488;2023-01-27T16:50:42;101660.75;;;2.80;100.00
4392;BME280;2210;51.938;8.488;2023-01-27T16:54:44;101662.47;;;2.81;100.00
4392;BME280;2210;51.938;8.488;2023-01-27T16:58:49;101665.47;;;2.78;100.00
4392;BME280;2210;51.938;8.488;2023-01-27T17:02:51;101667.81;;;2.73;100.00
4392;BME280;2210;51.938;8.488;2023-01-27T17:06:56;101677.03;;;2.72;100.00
4392;BME280;2210;51.938;8.488;2023-01-27T17:11:10;101674.59;;;2.68;100.00
4392;BME280;2210;51.938;8.488;2023-01-27T17:15:16;101682.75;;;2.68;100.00
4392;BME280;2210;51.938;8.488;2023-01-27T17:19:22;101685.66;;;2.67;100.00
4392;BME280;2210;51.938;8.488;2023-01-27T17:23:33;101684.09;;;2.64;100.00
4392;BME280;2210;51.938;8.488;2023-01-27T17:27:37;101690.84;;;2.60;100.00
4392;BME280;2210;51.938;8.488;2023-01-27T17:31:39;101692.03;;;2.58;100.00
4392;BME280;2210;51.938;8.488;2023-01-27T17:35:40;101692.91;;;2.58;100.00
4392;BME280;2210;51.938;8.488;2023-01-27T17:39:41;101685.34;;;2.52;100.00
4392;BME280;2210;51.938;8.488;2023-01-27T17:43:43;101681.63;;;2.53;100.00
4392;BME280;2210;51.938;8.488;2023-01-27T17:47:44;101687.38;;;2.50;100.00
4392;BME280;2210;51.938;8.488;2023-01-27T17:51:50;101688.38;;;2.49;100.00
4392;BME280;2210;51.938;8.488;2023-01-27T17:55:51;101701.28;;;2.47;100.00
4392;BME280;2210;51.938;8.488;2023-01-27T18:03:56;101710.47;;;2.46;100.00
4392;BME280;2210;51.938;8.488;2023-01-27T18:07:57;101702.47;;;2.44;100.00
4392;BME280;2210;51.938;8.488;2023-01-27T18:12:01;101705.31;;;2.43;100.00
4392;BME280;2210;51.938;8.488;2023-01-27T18:16:13;101710.75;;;2.43;100.00
4392;BME280;2210;51.938;8.488;2023-01-27T18:20:31;101705.78;;;2.38;100.00
4392;BME280;2210;51.938;8.488;2023-01-27T18:24:32;101713.13;;;2.38;100.00
4392;BME280;2210;51.938;8.488;2023-01-27T18:28:35;101709.53;;;2.37;100.00
4392;BME280;2210;51.938;8.488;2023-01-27T18:32:39;101715.13;;;2.35;100.00
4392;BME280;2210;51.938;8.488;2023-01-27T18:37:26;101715.97;;;2.36;100.00
4392;BME280;2210;51.938;8.488;2023-01-27T18:41:28;101722.28;;;2.36;100.00
4392;BME280;2210;51.938;8.488;2023-01-27T18:45:31;101733.34;;;2.35;100.00
4392;BME280;2210;51.938;8.488;2023-01-27T18:49:31;101731.44;;;2.35;100.00
4392;BME280;2210;51.938;8.488;2023-01-27T18:53:31;101729.72;;;2.34;100.00
4392;BME280;2210;51.938;8.488;2023-01-27T18:57:31;101741.09;;;2.30;100.00
4392;BME280;2210;51.938;8.488;2023-01-27T19:01:32;101746.13;;;2.25;100.00
4392;BME280;2210;51.938;8.488;2023-01-27T19:05:34;101744.13;;;2.27;100.00
4392;BME280;2210;51.938;8.488;2023-01-27T19:09:34;101746.13;;;2.25;100.00
4392;BME280;2210;51.938;8.488;2023-01-27T19:13:38;101748.00;;;2.24;100.00
4392;BME280;2210;51.938;8.488;2023-01-27T19:17:42;101754.75;;;2.20;100.00
4392;BME280;2210;51.938;8.488;2023-01-27T19:21:43;101757.75;;;2.17;100.00
4392;BME280;2210;51.938;8.488;2023-01-27T19:25:49;101759.06;;;2.13;100.00
4392;BME280;2210;51.938;8.488;2023-01-27T19:29:53;101755.66;;;2.11;100.00
4392;BME280;2210;51.938;8.488;2023-01-27T19:33:56;101761.41;;;2.08;100.00
4392;BME280;2210;51.938;8.488;2023-01-27T19:37:58;101755.97;;;2.08;100.00
4392;BME280;2210;51.938;8.488;2023-01-27T19:41:59;101765.13;;;2.07;100.00
4392;BME280;2210;51.938;8.488;2023-01-27T19:46:00;101763.41;;;2.06;100.00
4392;BME280;2210;51.938;8.488;2023-01-27T19:50:04;101765.72;;;2.00;100.00
4392;BME280;2210;51.938;8.488;2023-01-27T19:54:04;101774.91;;;1.99;100.00
4392;BME280;2210;51.938;8.488;2023-01-27T19:58:04;101769.91;;;1.95;100.00
4392;BME280;2210;51.938;8.488;2023-01-27T20:02:04;101779.78;;;1.96;100.00
4392;BME280;2210;51.938;8.488;2023-01-27T20:06:14;101781.94;;;1.92;100.00
4392;BME280;2210;51.938;8.488;2023-01-27T20:10:17;101782.94;;;1.91;100.00
4392;BME280;2210;51.938;8.488;2023-01-27T20:14:18;101784.97;;;1.89;100.00
4392;BME280;2210;51.938;8.488;2023-01-27T20:18:19;101786.97;;;1.87;100.00
4392;BME280;2210;51.938;8.488;2023-01-27T20:22:19;101790.72;;;1.86;100.00
4392;BME280;2210;51.938;8.488;2023-01-27T20:26:19;101796.28;;;1.84;100.00
4392;BME280;2210;51.938;8.488;2023-01-27T20:30:28;101794.59;;;1.83;100.00
4392;BME280;2210;51.938;8.488;2023-01-27T20:34:28;101792.28;;;1.79;100.00
4392;BME280;2210;51.938;8.488;2023-01-27T20:38:31;101793.00;;;1.81;100.00
4392;BME280;2210;51.938;8.488;2023-01-27T20:42:32;101797.47;;;1.82;100.00
4392;BME280;2210;51.938;8.488;2023-01-27T20:46:35;101793.00;;;1.81;100.00
4392;BME280;2210;51.938;8.488;2023-01-27T20:50:35;101796.31;;;1.75;100.00
4392;BME280;2210;51.938;8.488;2023-01-27T20:54:35;101799.75;;;1.77;100.00
4392;BME280;2210;51.938;8.488;2023-01-27T20:58:36;101798.88;;;1.76;100.00
4392;BME280;2210;51.938;8.488;2023-01-27T21:02:36;101799.03;;;1.75;100.00
4392;BME280;2210;51.938;8.488;2023-01-27T21:06:36;101804.47;;;1.75;100.00
4392;BME280;2210;51.938;8.488;2023-01-27T21:10:37;101806.50;;;1.73;100.00
4392;BME280;2210;51.938;8.488;2023-01-27T21:14:37;101805.06;;;1.68;100.00
4392;BME280;2210;51.938;8.488;2023-01-27T21:18:37;101813.25;;;1.68;100.00
4392;BME280;2210;51.938;8.488;2023-01-27T21:22:37;101807.22;;;1.65;100.00
4392;BME280;2210;51.938;8.488;2023-01-27T21:26:38;101802.22;;;1.70;100.00
4392;BME280;2210;51.938;8.488;2023-01-27T21:30:41;101807.22;;;1.65;100.00
4392;BME280;2210;51.938;8.488;2023-01-27T21:34:42;101804.97;;;1.60;100.00
4392;BME280;2210;51.938;8.488;2023-01-27T21:38:42;101800.22;;;1.62;100.00
4392;BME280;2210;51.938;8.488;2023-01-27T21:42:42;101799.53;;;1.60;100.00
4392;BME280;2210;51.938;8.488;2023-01-27T21:47:02;101795.34;;;1.66;100.00
4392;BME280;2210;51.938;8.488;2023-01-27T21:51:03;101797.06;;;1.57;100.00
4392;BME280;2210;51.938;8.488;2023-01-27T21:55:06;101802.81;;;1.54;100.00
4392;BME280;2210;51.938;8.488;2023-01-27T21:59:06;101795.38;;;1.56;100.00
4392;BME280;2210;51.938;8.488;2023-01-27T22:03:07;101784.25;;;1.49;100.00
4392;BME280;2210;51.938;8.488;2023-01-27T22:07:17;101783.66;;;1.46;100.00
4392;BME280;2210;51.938;8.488;2023-01-27T22:11:18;101788.78;;;1.49;100.00
4392;BME280;2210;51.938;8.488;2023-01-27T22:15:18;101798.56;;;1.42;100.00
4392;BME280;2210;51.938;8.488;2023-01-27T22:19:22;101796.41;;;1.35;100.00
4392;BME280;2210;51.938;8.488;2023-01-27T22:23:22;101793.25;;;1.40;100.00
4392;BME280;2210;51.938;8.488;2023-01-27T22:27:23;101802.56;;;1.38;100.00
4392;BME280;2210;51.938;8.488;2023-01-27T22:31:23;101792.84;;;1.35;100.00
4392;BME280;2210;51.938;8.488;2023-01-27T22:35:26;101798.00;;;1.28;100.00
4392;BME280;2210;51.938;8.488;2023-01-27T22:39:29;101784.84;;;1.24;100.00
4392;BME280;2210;51.938;8.488;2023-01-27T22:43:30;101779.97;;;1.27;100.00
4392;BME280;2210;51.938;8.488;2023-01-27T22:47:30;101785.13;;;1.21;100.00
4392;BME280;2210;51.938;8.488;2023-01-27T22:51:30;101780.13;;;1.16;100.00
4392;BME280;2210;51.938;8.488;2023-01-27T22:55:31;101767.84;;;1.12;100.00
4392;BME280;2210;51.938;8.488;2023-01-27T22:59:31;101772.25;;;1.03;100.00
4392;BME280;2210;51.938;8.488;2023-01-27T23:03:32;101768.13;;;0.99;100.00
4392;BME280;2210;51.938;8.488;2023-01-27T23:07:32;101766.28;;;0.99;100.00
4392;BME280;2210;51.938;8.488;2023-01-27T23:11:32;101769.56;;;1.03;100.00
4392;BME280;2210;51.938;8.488;2023-01-27T23:15:33;101775.56;;;0.97;100.00
4392;BME280;2210;51.938;8.488;2023-01-27T23:19:33;101784.56;;;0.97;100.00
4392;BME280;2210;51.938;8.488;2023-01-27T23:23:34;101783.72;;;0.87;100.00
4392;BME280;2210;51.938;8.488;2023-01-27T23:27:34;101787.44;;;0.86;100.00
4392;BME280;2210;51.938;8.488;2023-01-27T23:31:38;101787.28;;;0.88;100.00
4392;BME280;2210;51.938;8.488;2023-01-27T23:35:39;101794.28;;;0.90;100.00
4392;BME280;2210;51.938;8.488;2023-01-27T23:39:39;101798.44;;;0.94;99.65
4392;BME280;2210;51.938;8.488;2023-01-27T23:43:50;101794.28;;;0.90;100.00
4392;BME280;2210;51.938;8.488;2023-01-27T23:47:51;101798.28;;;0.96;100.00
4392;BME280;2210;51.938;8.488;2023-01-27T23:51:54;101792.16;;;0.94;100.00